Time;durP1;ratioP1;P1;durP2;ratioP2;P2;SDS_P1;SDS_P2;PMS_P1;PMS_P2;Temp;Humidity;BMP_temperature;BMP_pressure;BME280_temperature;BME280_humidity;BME280_pressure;Samples;Min_cycle;Max_cycle;Signal;HPM_P1;HPM_P2
2021/06/16 00:00:28;;;;;;;3.22;2.50;;;;;;;18.21;60.53;96020.16;4964018;28;20035;-59
2021/06/16 00:02:54;;;;;;;2.63;2.42;;;;;;;20.08;60.19;96322.09;4965578;28;20141;-58
2021/06/16 00:05:26;;;;;;;3.75;2.67;;;;;;;17.74;60.66;95944.22;4966344;28;20038;-61
2021/06/16 00:07:52;;;;;;;2.47;2.28;;;;;;;19.96;61.40;96317.25;4968499;28;20494;-58
2021/06/16 00:10:22;;;;;;;2.45;2.17;;;;;;;19.82;61.74;96312.88;4968244;28;20027;-62
2021/06/16 00:12:47;;;;;;;3.67;2.58;;;;;;;19.57;62.11;96303.63;4968203;28;20097;-59
2021/06/16 00:15:19;;;;;;;3.67;2.58;;;;;;;19.84;62.58;96340.53;4967695;28;20031;-58
2021/06/16 00:17:45;;;;;;;3.92;2.55;;;;;;;19.78;62.72;96331.84;4966570;28;20526;-58
2021/06/16 00:20:11;;;;;;;2.72;2.53;;;;;;;19.85;62.39;96330.84;4965940;28;20090;-59
2021/06/16 00:22:37;;;;;;;3.80;2.60;;;;;;;19.86;62.58;96340.84;4966472;28;20422;-59
2021/06/16 00:25:04;;;;;;;3.05;2.30;;;;;;;19.47;63.25;96311.91;4968190;28;20034;-58
2021/06/16 00:27:30;;;;;;;2.92;2.72;;;;;;;19.83;62.96;96344.56;4968523;28;20046;-59
2021/06/16 00:29:55;;;;;;;2.40;2.17;;;;;;;19.68;63.37;96347.00;4982659;28;20023;-59
2021/06/16 00:32:21;;;;;;;3.83;3.10;;;;;;;19.52;65.13;96344.28;4965965;28;20038;-59
2021/06/16 00:34:46;;;;;;;3.47;2.67;;;;;;;19.24;63.48;96272.84;4966210;28;20341;-60
2021/06/16 00:37:11;;;;;;;4.90;3.10;;;;;;;19.65;63.95;96361.19;4966408;28;20441;-58
2021/06/16 00:39:37;;;;;;;2.78;2.58;;;;;;;19.58;64.32;96367.00;4968207;28;20038;-62
2021/06/16 00:42:03;;;;;;;2.42;2.22;;;;;;;18.79;67.42;96266.53;4967762;28;20736;-59
2021/06/16 00:44:29;;;;;;;3.25;2.63;;;;;;;19.14;69.03;96351.78;4967588;28;20045;-59
2021/06/16 00:46:54;;;;;;;4.32;2.97;;;;;;;18.37;71.45;96294.88;4966073;28;20046;-59
2021/06/16 00:49:20;;;;;;;5.32;3.45;;;;;;;18.22;73.50;96299.25;4967769;28;20031;-60
2021/06/16 00:51:45;;;;;;;9.77;4.88;;;;;;;18.46;75.96;96371.59;4967384;28;20313;-59
2021/06/16 00:54:11;;;;;;;5.00;3.35;;;;;;;17.79;77.75;96316.28;4967352;28;20030;-58
2021/06/16 00:56:42;;;;;;;11.90;6.70;;;;;;;18.06;79.79;96376.50;4965654;28;20160;-60
2021/06/16 00:59:08;;;;;;;6.57;3.75;;;;;;;17.99;79.05;96398.28;4967219;28;20489;-60
2021/06/16 01:01:40;;;;;;;4.95;3.30;;;;;;;17.97;79.83;96389.53;4967297;28;20553;-60
2021/06/16 01:04:17;;;;;;;4.38;2.58;;;;;;;18.00;77.42;96385.88;4967206;28;20030;-61
2021/06/16 01:06:50;;;;;;;4.15;3.10;;;;;;;18.05;77.68;96386.13;4967239;28;20043;-60
2021/06/16 01:09:16;;;;;;;7.15;4.22;;;;;;;17.99;78.89;96384.28;4967263;28;20125;-59
2021/06/16 01:11:53;;;;;;;5.32;2.50;;;;;;;18.08;76.30;96378.88;4966791;28;20421;-59
2021/06/16 01:14:27;;;;;;;6.13;3.67;;;;;;;16.26;75.31;96067.38;4966196;28;20030;-59
2021/06/16 01:16:59;;;;;;;4.28;2.78;;;;;;;17.73;75.34;96335.63;4966820;28;20513;-61
2021/06/16 01:19:43;;;;;;;3.90;2.45;;;;;;;18.27;75.99;96369.63;4966812;28;20469;-63
2021/06/16 01:22:59;;;;;;;28.40;10.25;;;;;;;18.24;76.21;96356.44;4966615;28;20073;-61
2021/06/16 01:25:46;;;;;;;6.82;3.85;;;;;;;18.33;74.66;96362.25;4966440;28;20026;-62
2021/06/16 01:28:14;;;;;;;3.60;2.90;;;;;;;18.41;74.51;96352.47;4967186;28;20090;-62
2021/06/16 01:30:42;;;;;;;3.33;2.50;;;;;;;18.36;74.75;96343.75;4964830;28;20043;-61
2021/06/16 01:33:10;;;;;;;5.10;2.35;;;;;;;18.18;74.73;96288.13;4965204;28;20034;-62
2021/06/16 01:35:38;;;;;;;10.65;3.90;;;;;;;18.00;75.32;96287.78;4966505;28;20042;-62
2021/06/16 01:38:06;;;;;;;2.30;2.10;;;;;;;18.38;74.38;96324.50;4967122;28;20039;-59
2021/06/16 01:40:33;;;;;;;3.03;2.20;;;;;;;17.90;71.71;96210.34;4966399;28;20042;-60
2021/06/16 01:43:01;;;;;;;2.78;2.42;;;;;;;18.39;71.72;96310.06;4966544;28;20042;-60
2021/06/16 01:45:30;;;;;;;2.10;1.90;;;;;;;18.62;71.55;96329.47;4965864;28;20041;-59
2021/06/16 01:47:58;;;;;;;2.63;2.25;;;;;;;18.85;70.26;96340.53;4966941;28;20379;-59
2021/06/16 01:50:25;;;;;;;2.88;2.35;;;;;;;18.93;69.06;96339.09;4966359;28;20022;-61
2021/06/16 01:52:53;;;;;;;4.07;2.42;;;;;;;18.97;68.09;96362.22;4966460;28;20085;-59
2021/06/16 01:55:19;;;;;;;3.08;2.50;;;;;;;19.07;68.71;96366.78;4965650;28;20058;-60
2021/06/16 01:57:45;;;;;;;2.75;2.53;;;;;;;18.70;68.93;96302.81;4966182;28;20046;-60
2021/06/16 02:00:12;;;;;;;2.72;2.38;;;;;;;18.92;69.51;96353.56;4965982;28;20062;-59
2021/06/16 02:02:38;;;;;;;7.22;2.42;;;;;;;18.93;69.93;96366.38;4966141;28;20035;-61
2021/06/16 02:05:06;;;;;;;2.75;2.53;;;;;;;18.88;69.55;96373.31;4966137;28;20033;-60
2021/06/16 02:07:38;;;;;;;3.47;2.50;;;;;;;18.92;68.75;96368.38;4965213;28;20177;-61
2021/06/16 02:10:06;;;;;;;3.10;2.30;;;;;;;18.86;69.64;96401.03;4964392;28;20128;-59
2021/06/16 02:12:32;;;;;;;4.03;2.33;;;;;;;18.90;69.04;96376.47;4964430;28;20047;-60
2021/06/16 02:15:09;;;;;;;3.33;2.55;;;;;;;18.87;69.35;96366.13;4965864;28;20125;-59
2021/06/16 02:17:36;;;;;;;3.65;2.85;;;;;;;18.45;69.61;96311.09;4964381;28;20098;-59
2021/06/16 02:20:03;;;;;;;3.67;2.70;;;;;;;18.82;68.69;96349.81;4965700;28;20074;-61
2021/06/16 02:22:29;;;;;;;3.60;2.45;;;;;;;18.82;67.73;96361.03;4964160;28;20038;-60
2021/06/16 02:24:55;;;;;;;9.93;2.63;;;;;;;18.56;68.83;96320.03;4964532;28;20039;-58
2021/06/16 02:27:27;;;;;;;3.65;2.92;;;;;;;18.61;69.10;96316.69;4965820;28;20130;-61
2021/06/16 02:29:52;;;;;;;5.63;2.90;;;;;;;18.95;67.78;96370.31;4965823;28;20462;-59
2021/06/16 02:32:18;;;;;;;2.78;2.58;;;;;;;18.67;67.93;96320.53;4963427;28;20046;-61
2021/06/16 02:34:44;;;;;;;3.15;2.50;;;;;;;19.03;67.76;96374.50;4963927;28;20042;-59
2021/06/16 02:37:15;;;;;;;3.13;2.38;;;;;;;19.05;67.95;96369.25;4963807;28;20516;-60
2021/06/16 02:40:06;;;;;;;3.78;2.90;;;;;;;18.92;68.71;96379.59;4964374;28;20478;-60
2021/06/16 02:42:32;;;;;;;3.10;2.80;;;;;;;18.91;68.65;96375.22;4964281;28;20133;-60
2021/06/16 02:45:00;;;;;;;2.80;2.60;;;;;;;18.88;68.71;96373.31;4964399;28;20121;-61
2021/06/16 02:47:27;;;;;;;3.72;2.70;;;;;;;18.78;68.54;96363.13;4965242;28;20045;-59
2021/06/16 02:50:01;;;;;;;4.05;3.35;;;;;;;18.89;69.07;96386.09;4965226;28;20045;-59
2021/06/16 02:52:28;;;;;;;3.25;3.00;;;;;;;18.74;69.16;96375.69;4965234;28;20459;-60
2021/06/16 02:55:03;;;;;;;3.40;3.10;;;;;;;18.88;69.10;96404.19;4963518;28;20577;-60
2021/06/16 02:57:31;;;;;;;3.83;2.97;;;;;;;18.40;68.96;96327.69;4965509;28;20039;-59
2021/06/16 02:59:58;;;;;;;3.33;2.75;;;;;;;18.59;68.78;96361.22;4965280;28;20049;-59
2021/06/16 03:02:26;;;;;;;3.15;2.83;;;;;;;18.93;68.87;96417.69;4963401;28;20043;-59
2021/06/16 03:04:52;;;;;;;4.18;3.55;;;;;;;18.90;69.43;96407.34;4963873;28;20035;-62
2021/06/16 03:07:20;;;;;;;3.90;3.50;;;;;;;18.51;69.60;96365.44;4965220;28;20050;-62
2021/06/16 03:09:46;;;;;;;3.47;2.90;;;;;;;18.87;69.48;96397.00;4963585;28;20086;-59
2021/06/16 03:12:15;;;;;;;6.80;3.53;;;;;;;18.93;69.11;96434.53;4963122;28;20536;-62
2021/06/16 03:14:40;;;;;;;5.57;3.47;;;;;;;18.42;68.51;96309.19;4963753;28;20201;-61
2021/06/16 03:17:09;;;;;;;2.85;2.65;;;;;;;19.16;67.37;96402.63;4964692;28;20117;-59
2021/06/16 03:19:36;;;;;;;4.32;2.80;;;;;;;19.33;67.25;96405.00;4963288;28;20422;-59
2021/06/16 03:22:03;;;;;;;6.15;2.97;;;;;;;18.98;66.17;96340.56;4962931;28;20062;-60
2021/06/16 03:24:30;;;;;;;5.47;3.15;;;;;;;19.34;66.96;96433.88;4965078;28;20038;-61
2021/06/16 03:26:57;;;;;;;4.15;3.75;;;;;;;19.22;67.69;96417.75;4964740;28;20081;-61
2021/06/16 03:29:23;;;;;;;3.80;2.92;;;;;;;19.44;66.38;96413.91;4963113;28;20146;-59
2021/06/16 03:31:51;;;;;;;5.38;3.03;;;;;;;19.57;66.96;96416.78;4962985;28;20038;-59
2021/06/16 03:34:17;;;;;;;3.88;3.45;;;;;;;19.58;67.13;96412.75;4964742;28;20514;-59
2021/06/16 03:36:45;;;;;;;4.18;3.78;;;;;;;19.02;67.54;96363.72;4964238;28;20062;-58
2021/06/16 03:39:14;;;;;;;7.38;4.57;;;;;;;19.31;68.64;96431.97;4970873;28;20031;-59
2021/06/16 03:41:43;;;;;;;6.25;3.55;;;;;;;19.13;68.66;96381.06;4971548;28;20045;-59
2021/06/16 03:44:10;;;;;;;4.35;3.47;;;;;;;19.60;67.83;96420.72;4971425;28;20026;-61
2021/06/16 03:46:39;;;;;;;4.22;3.55;;;;;;;19.55;68.36;96420.03;4970847;28;20125;-60
2021/06/16 03:49:08;;;;;;;5.28;4.78;;;;;;;19.43;67.38;96373.03;4971506;28;20034;-59
2021/06/16 03:51:34;;;;;;;6.57;5.97;;;;;;;19.57;68.42;96425.19;4970827;28;20047;-61
2021/06/16 03:54:01;;;;;;;6.75;5.60;;;;;;;19.70;67.12;96428.84;4971108;28;20041;-59
2021/06/16 03:56:27;;;;;;;7.22;5.78;;;;;;;19.86;67.31;96423.16;4970938;28;20047;-62
2021/06/16 03:58:54;;;;;;;6.43;5.25;;;;;;;20.11;66.37;96422.41;4971871;28;20190;-59
2021/06/16 04:01:19;;;;;;;6.47;5.88;;;;;;;19.99;66.33;96431.63;4969211;28;20046;-59
2021/06/16 04:03:46;;;;;;;9.82;6.75;;;;;;;19.95;66.35;96430.97;4970782;28;20042;-60
2021/06/16 04:06:15;;;;;;;6.00;4.68;;;;;;;19.30;67.36;96375.00;4969006;28;20046;-60
2021/06/16 04:08:44;;;;;;;6.18;3.53;;;;;;;19.84;66.36;96424.88;4969431;28;20062;-60
2021/06/16 04:11:13;;;;;;;5.88;4.10;;;;;;;20.12;65.38;96446.50;4968702;28;20038;-61
2021/06/16 04:13:39;;;;;;;3.58;3.17;;;;;;;20.24;65.05;96457.00;4970846;28;20131;-59
2021/06/16 04:16:05;;;;;;;4.53;4.13;;;;;;;20.19;65.57;96463.19;4969554;28;20133;-59
2021/06/16 04:18:32;;;;;;;5.25;4.38;;;;;;;19.99;67.21;96454.13;4971140;28;20862;-59
2021/06/16 04:21:01;;;;;;;5.22;3.67;;;;;;;19.80;66.04;96412.91;4970379;28;20442;-62
2021/06/16 04:23:27;;;;;;;5.78;3.15;;;;;;;20.51;65.17;96460.19;4970341;28;20058;-61
2021/06/16 04:25:52;;;;;;;4.78;3.80;;;;;;;20.62;65.10;96463.47;4970427;28;20041;-60
2021/06/16 04:28:18;;;;;;;4.28;3.22;;;;;;;20.19;64.63;96406.94;4969262;28;20470;-63
2021/06/16 04:30:44;;;;;;;3.85;3.17;;;;;;;20.50;64.42;96458.63;4970290;28;20039;-58
2021/06/16 04:33:10;;;;;;;6.28;3.53;;;;;;;19.93;66.75;96478.41;4969550;28;20034;-60
2021/06/16 04:35:35;;;;;;;4.07;3.78;;;;;;;19.79;67.09;96467.56;4968609;28;20525;-59
2021/06/16 04:38:01;;;;;;;6.05;3.90;;;;;;;19.68;67.88;96479.09;4970999;28;20030;-60
2021/06/16 04:40:26;;;;;;;3.40;3.10;;;;;;;19.82;67.63;96466.69;4969868;28;20472;-59
2021/06/16 04:42:52;;;;;;;5.68;4.20;;;;;;;19.62;68.34;96460.44;4970202;28;20031;-58
2021/06/16 04:45:18;;;;;;;5.72;3.35;;;;;;;19.49;67.76;96449.91;4965519;28;20529;-59
2021/06/16 04:47:43;;;;;;;4.15;3.75;;;;;;;19.47;67.74;96413.03;4970441;28;20450;-62
2021/06/16 04:50:11;;;;;;;8.05;3.30;;;;;;;19.92;67.79;96493.69;4966378;28;20121;-58
2021/06/16 04:52:37;;;;;;;3.47;3.17;;;;;;;20.05;67.77;96486.06;4967403;28;20510;-59
2021/06/16 04:55:04;;;;;;;6.28;3.70;;;;;;;20.15;67.48;96479.41;4965410;28;20063;-61
2021/06/16 04:57:30;;;;;;;4.22;3.92;;;;;;;20.22;67.09;96479.16;4967865;28;20054;-61
2021/06/16 04:59:55;;;;;;;3.65;3.03;;;;;;;20.26;66.31;96488.31;4967487;28;20031;-60
2021/06/16 05:02:20;;;;;;;3.53;3.22;;;;;;;19.82;67.22;96478.72;4967238;28;20042;-59
2021/06/16 05:04:46;;;;;;;3.42;3.10;;;;;;;19.34;69.79;96431.88;4967079;28;20042;-62
2021/06/16 05:07:11;;;;;;;3.97;3.55;;;;;;;19.66;68.94;96447.84;4965055;28;20041;-60
2021/06/16 05:09:37;;;;;;;3.63;3.33;;;;;;;20.02;68.13;96489.78;4967477;28;20041;-58
2021/06/16 05:12:04;;;;;;;3.92;3.45;;;;;;;19.58;69.46;96433.19;4966901;28;20031;-59
2021/06/16 05:14:29;;;;;;;7.35;5.60;;;;;;;19.16;70.13;96388.59;4967262;28;20516;-59
2021/06/16 05:16:55;;;;;;;4.97;4.15;;;;;;;20.08;69.71;96502.06;4967277;28;20057;-61
2021/06/16 05:19:22;;;;;;;8.48;5.32;;;;;;;20.28;70.57;96505.53;4965639;28;20030;-59
2021/06/16 05:21:48;;;;;;;3.70;3.13;;;;;;;20.22;69.64;96518.53;4967145;28;20054;-59
2021/06/16 05:24:14;;;;;;;7.93;5.30;;;;;;;19.54;72.98;96473.84;4966857;28;20150;-60
2021/06/16 05:26:40;;;;;;;4.72;4.22;;;;;;;18.48;75.88;96436.44;4966709;28;20402;-60
2021/06/16 05:29:06;;;;;;;8.82;5.28;;;;;;;18.96;77.61;96534.69;4967134;28;20090;-58
2021/06/16 05:31:32;;;;;;;3.78;2.83;;;;;;;19.11;77.28;96524.69;4966538;28;20114;-61
2021/06/16 05:33:57;;;;;;;3.28;2.80;;;;;;;18.94;75.95;96517.50;4967048;28;20517;-58
2021/06/16 05:36:24;;;;;;;4.43;3.45;;;;;;;18.81;76.23;96482.94;4966525;28;20077;-57
2021/06/16 05:38:49;;;;;;;3.20;2.90;;;;;;;18.72;75.69;96460.31;4966871;28;20046;-57
2021/06/16 05:41:15;;;;;;;2.95;2.75;;;;;;;18.77;74.75;96442.94;4964629;28;20038;-60
2021/06/16 05:43:40;;;;;;;3.30;3.00;;;;;;;19.36;72.93;96536.13;4966478;28;20052;-59
2021/06/16 05:46:06;;;;;;;3.08;2.78;;;;;;;19.42;72.86;96545.63;4966349;28;20039;-58
2021/06/16 05:48:31;;;;;;;4.35;3.95;;;;;;;17.23;73.41;96211.91;4966261;28;20035;-62
2021/06/16 05:51:04;;;;;;;5.22;4.47;;;;;;;18.84;75.87;96524.16;4964197;28;20031;-58
2021/06/16 05:53:29;;;;;;;5.45;4.32;;;;;;;19.19;75.80;96545.75;4963526;28;20038;-73
2021/06/16 05:55:58;;;;;;;3.70;3.40;;;;;;;19.44;73.51;96529.09;4965292;28;20062;-62
2021/06/16 05:58:23;;;;;;;4.90;4.00;;;;;;;17.97;73.77;96277.44;4964611;28;20047;-72
2021/06/16 06:00:49;;;;;;;4.90;3.88;;;;;;;19.83;75.00;96524.47;4964698;28;20039;-58
2021/06/16 06:03:14;;;;;;;4.30;3.80;;;;;;;19.28;71.42;96416.75;4965401;28;20455;-63
2021/06/16 06:05:40;;;;;;;3.33;3.05;;;;;;;20.03;70.37;96533.56;4965711;28;20458;-71
2021/06/16 06:08:07;;;;;;;3.70;3.40;;;;;;;20.16;70.29;96545.66;4963211;28;20043;-60
2021/06/16 06:10:32;;;;;;;4.00;3.20;;;;;;;20.11;69.39;96495.53;4964635;28;20050;-67
2021/06/16 06:12:58;;;;;;;6.72;3.50;;;;;;;20.59;68.59;96538.34;4965925;28;20598;-61
2021/06/16 06:15:23;;;;;;;3.83;3.45;;;;;;;20.51;68.07;96547.44;4965494;28;20433;-59
2021/06/16 06:17:50;;;;;;;3.90;3.60;;;;;;;20.35;67.55;96510.94;4965794;28;20035;-67
2021/06/16 06:20:17;;;;;;;4.95;4.10;;;;;;;20.58;66.71;96521.91;4965252;28;20031;-61
2021/06/16 06:22:42;;;;;;;4.88;3.58;;;;;;;19.71;67.77;96446.50;4964300;28;20038;-60
2021/06/16 06:25:10;;;;;;;5.00;3.65;;;;;;;19.73;67.13;96397.03;4965247;28;20509;-61
2021/06/16 06:27:36;;;;;;;4.60;3.10;;;;;;;21.03;65.11;96525.31;4966397;28;20042;-68
2021/06/16 06:30:03;;;;;;;4.00;3.42;;;;;;;20.76;66.19;96530.56;4964211;28;20042;-64
2021/06/16 06:32:29;;;;;;;4.43;3.22;;;;;;;20.91;63.77;96469.78;4965656;28;20062;-63
2021/06/16 06:34:54;;;;;;;3.65;3.10;;;;;;;20.85;62.24;96398.34;4966103;28;20126;-60
2021/06/16 06:37:20;;;;;;;4.60;3.15;;;;;;;21.85;62.49;96533.41;4965102;28;20291;-69
2021/06/16 06:39:46;;;;;;;4.55;3.60;;;;;;;22.00;62.26;96531.66;4965103;28;20066;-65
2021/06/16 06:42:18;;;;;;;3.38;3.08;;;;;;;21.89;61.66;96530.47;4964635;28;20413;-61
2021/06/16 06:44:44;;;;;;;5.90;4.07;;;;;;;21.78;63.27;96505.44;4964753;28;20046;-65
2021/06/16 06:47:10;;;;;;;5.45;3.22;;;;;;;22.02;62.24;96542.50;4964007;28;20034;-65
2021/06/16 06:49:35;;;;;;;3.92;3.20;;;;;;;21.75;61.09;96516.84;4963919;28;20182;-63
2021/06/16 06:52:01;;;;;;;2.95;2.75;;;;;;;21.81;62.10;96535.59;4959153;28;20060;-73
2021/06/16 06:54:30;;;;;;;3.40;3.00;;;;;;;21.24;63.40;96498.47;4964047;28;20117;-72
2021/06/16 06:56:55;;;;;;;3.75;3.45;;;;;;;21.51;62.78;96526.94;4965628;28;20038;-60
2021/06/16 06:59:21;;;;;;;6.20;5.60;;;;;;;21.70;63.42;96535.16;4964701;28;20031;-58
2021/06/16 07:01:46;;;;;;;9.13;7.80;;;;;;;21.49;62.81;96499.22;4963724;28;20122;-62
2021/06/16 07:04:12;;;;;;;10.95;8.43;;;;;;;22.01;61.32;96524.78;4964364;28;20035;-62
2021/06/16 07:06:37;;;;;;;7.60;6.80;;;;;;;21.48;61.57;96503.25;4964189;28;20077;-65
2021/06/16 07:09:03;;;;;;;7.55;6.57;;;;;;;21.35;63.85;96510.19;4964119;28;20034;-72
2021/06/16 07:11:29;;;;;;;4.32;3.40;;;;;;;21.27;62.65;96537.00;4964121;28;20093;-66
2021/06/16 07:13:55;;;;;;;6.88;4.07;;;;;;;21.46;62.03;96539.59;4963291;28;20046;-59
2021/06/16 07:16:20;;;;;;;3.72;3.42;;;;;;;21.13;63.08;96510.13;4964835;28;20118;-58
2021/06/16 07:18:47;;;;;;;3.90;3.08;;;;;;;20.17;63.36;96455.19;4965166;28;20085;-65
2021/06/16 07:21:13;;;;;;;4.00;3.63;;;;;;;20.84;64.25;96544.00;4964226;28;20039;-73
2021/06/16 07:23:38;;;;;;;4.60;3.42;;;;;;;20.84;64.29;96537.56;4964548;28;20516;-61
2021/06/16 07:26:04;;;;;;;3.75;3.20;;;;;;;20.92;64.14;96531.28;4964543;28;20223;-72
2021/06/16 07:28:29;;;;;;;4.25;3.85;;;;;;;20.69;64.88;96516.75;4962654;28;20046;-71
2021/06/16 07:30:55;;;;;;;10.00;4.07;;;;;;;20.85;65.67;96522.25;4962220;28;20129;-68
2021/06/16 07:33:21;;;;;;;7.22;3.58;;;;;;;20.41;67.15;96554.16;4963605;28;20030;-62
2021/06/16 07:35:46;;;;;;;8.07;4.60;;;;;;;20.37;66.79;96502.84;4961820;28;20509;-73
2021/06/16 07:38:13;;;;;;;3.17;2.80;;;;;;;19.88;67.18;96516.28;4964059;28;20093;-67
2021/06/16 07:40:39;;;;;;;12.90;6.47;;;;;;;20.12;66.28;96503.53;4962402;28;20125;-66
2021/06/16 07:43:04;;;;;;;2.97;2.78;;;;;;;20.16;67.43;96531.59;4961815;28;20042;-66
2021/06/16 07:45:31;;;;;;;4.07;2.83;;;;;;;20.01;66.73;96486.16;4963461;28;20093;-64
2021/06/16 07:47:57;;;;;;;3.22;2.88;;;;;;;20.12;66.82;96480.25;4961773;28;20039;-62
2021/06/16 07:50:23;;;;;;;7.00;4.25;;;;;;;20.74;66.83;96566.81;4935775;28;20701;-67
2021/06/16 07:52:48;;;;;;;5.47;4.18;;;;;;;20.67;66.81;96561.44;4961086;28;20046;-60
2021/06/16 07:55:15;;;;;;;2.92;2.70;;;;;;;17.98;68.21;96256.59;4962440;28;20553;-66
2021/06/16 07:57:40;;;;;;;2.70;2.50;;;;;;;20.49;67.82;96567.59;4958748;28;20578;-65
2021/06/16 08:00:07;;;;;;;5.35;2.78;;;;;;;20.79;66.43;96566.28;4945820;28;20031;-64
2021/06/16 08:02:32;;;;;;;2.55;2.13;;;;;;;18.65;65.59;96188.31;4943489;28;20035;-77
2021/06/16 08:04:58;;;;;;;2.60;2.40;;;;;;;21.11;65.32;96563.28;4965859;28;20041;-70
2021/06/16 08:07:24;;;;;;;3.55;2.58;;;;;;;21.04;64.67;96566.31;4960157;28;20031;-75
2021/06/16 08:09:50;;;;;;;2.97;2.72;;;;;;;21.22;64.19;96563.72;4963311;28;20388;-69
2021/06/16 08:12:16;;;;;;;2.45;2.25;;;;;;;21.77;63.32;96577.19;4960534;28;20059;-64
2021/06/16 08:14:43;;;;;;;4.57;2.20;;;;;;;22.10;61.76;96581.28;4962290;28;20058;-70
2021/06/16 08:17:09;;;;;;;2.90;2.60;;;;;;;21.60;63.21;96611.59;4964086;28;20034;-72
2021/06/16 08:19:35;;;;;;;4.53;2.30;;;;;;;21.09;62.81;96481.25;4963923;28;20030;-61
2021/06/16 08:22:02;;;;;;;2.58;2.42;;;;;;;21.63;62.60;96549.47;4961664;28;20466;-63
2021/06/16 08:24:28;;;;;;;4.10;3.13;;;;;;;22.18;62.10;96573.34;4955959;28;20098;-62
2021/06/16 08:26:54;;;;;;;2.70;2.45;;;;;;;22.72;59.11;96584.25;4955681;28;20039;-64
2021/06/16 08:29:20;;;;;;;3.20;2.10;;;;;;;22.33;59.47;96583.69;4963806;28;20027;-61
2021/06/16 08:31:46;;;;;;;3.33;1.77;;;;;;;22.33;59.19;96589.31;4963929;28;20537;-62
2021/06/16 08:34:11;;;;;;;4.30;3.60;;;;;;;22.38;59.93;96604.88;4963388;28;20027;-62
2021/06/16 08:36:41;;;;;;;2.22;2.13;;;;;;;22.01;61.42;96592.47;4963305;28;20520;-63
2021/06/16 08:39:06;;;;;;;2.53;2.17;;;;;;;22.59;60.15;96608.97;4959489;28;20113;-60
2021/06/16 08:41:32;;;;;;;3.03;2.50;;;;;;;22.38;57.69;96560.47;4974079;28;20246;-62
2021/06/16 08:43:58;;;;;;;4.05;2.42;;;;;;;22.52;57.38;96558.41;4964226;28;20050;-69
2021/06/16 08:46:24;;;;;;;3.08;2.53;;;;;;;23.25;55.15;96599.94;4962418;28;20554;-62
2021/06/16 08:48:50;;;;;;;2.30;2.17;;;;;;;23.75;52.41;96605.19;4965469;28;20038;-66
2021/06/16 08:51:16;;;;;;;2.40;2.30;;;;;;;23.44;51.74;96613.72;4966243;28;20426;-65
2021/06/16 08:53:45;;;;;;;3.15;2.90;;;;;;;20.96;52.20;96219.38;4963812;28;20041;-61
2021/06/16 08:56:11;;;;;;;3.00;2.70;;;;;;;23.23;53.03;96602.44;4964708;28;20057;-66
2021/06/16 08:58:39;;;;;;;2.50;2.30;;;;;;;22.73;53.65;96586.63;4963382;28;20038;-60
2021/06/16 09:01:06;;;;;;;2.95;2.70;;;;;;;23.05;52.38;96619.31;4964985;28;20038;-66
2021/06/16 09:03:32;;;;;;;4.20;2.47;;;;;;;23.16;51.33;96614.03;4965238;28;20513;-61
2021/06/16 09:06:06;;;;;;;3.08;2.85;;;;;;;23.49;51.10;96587.66;4965879;28;20046;-61
2021/06/16 09:08:32;;;;;;;2.70;2.50;;;;;;;23.58;50.54;96601.06;4966632;28;20078;-66
2021/06/16 09:10:58;;;;;;;2.85;2.65;;;;;;;23.35;51.67;96604.41;4965984;28;20054;-60
2021/06/16 09:13:31;;;;;;;2.75;2.55;;;;;;;23.61;52.01;96594.47;4966285;28;20031;-62
2021/06/16 09:15:58;;;;;;;;;;;;;;;23.41;53.75;96596.91;4966247;28;20042;-68
2021/06/16 09:18:24;;;;;;;4.10;3.80;;;;;;;23.46;52.31;96534.88;4964243;28;19918;-68
2021/06/16 09:20:55;;;;;;;5.97;3.45;;;;;;;22.68;54.53;96623.16;4965417;28;20038;-59
2021/06/16 09:23:24;;;;;;;6.68;5.28;;;;;;;21.97;56.44;96596.69;4965790;28;20058;-65
2021/06/16 09:26:17;;;;;;;9.52;4.63;;;;;;;22.15;58.24;96614.56;4980101;28;20502;-66
2021/06/16 09:28:45;;;;;;;18.33;10.17;;;;;;;21.89;58.27;96618.69;4964157;28;20022;-61
2021/06/16 09:31:14;;;;;;;2.90;2.70;;;;;;;21.75;59.32;96627.63;4965692;28;20325;-61
2021/06/16 09:33:41;;;;;;;2.45;2.25;;;;;;;21.61;58.58;96644.97;4967184;28;20031;-65
2021/06/16 09:36:21;;;;;;;4.07;3.42;;;;;;;21.57;58.00;96647.13;4965869;28;20092;-59
2021/06/16 09:38:49;;;;;;;2.70;2.50;;;;;;;21.63;55.79;96605.84;4966582;28;20031;-67
2021/06/16 09:41:21;;;;;;;4.78;3.08;;;;;;;22.13;54.28;96645.25;4966056;28;20042;-65
2021/06/16 09:43:48;;;;;;;2.63;2.42;;;;;;;22.07;54.60;96647.06;4966135;28;20576;-66
2021/06/16 09:46:14;;;;;;;3.40;3.10;;;;;;;22.58;54.52;96590.44;4966028;28;20057;-66
2021/06/16 09:48:45;;;;;;;2.90;2.70;;;;;;;23.30;52.60;96622.00;4966115;28;20031;-60
2021/06/16 09:51:26;;;;;;;4.20;2.88;;;;;;;23.37;50.00;96421.78;4964213;28;20030;-65
2021/06/16 09:53:59;;;;;;;15.02;3.25;;;;;;;24.46;48.89;96574.59;4966215;28;20039;-65
2021/06/16 09:56:32;;;;;;;3.88;3.58;;;;;;;24.71;46.78;96643.09;4966119;28;20089;-59
2021/06/16 09:58:59;;;;;;;5.90;5.40;;;;;;;23.29;53.12;96652.28;4965949;28;20077;-66
2021/06/16 10:01:47;;;;;;;3.45;3.15;;;;;;;23.85;50.92;96620.94;4966102;28;20117;-64
2021/06/16 10:04:33;;;;;;;4.43;3.33;;;;;;;22.34;49.40;96339.69;4966346;28;20223;-67
2021/06/16 10:07:20;;;;;;;4.72;4.13;;;;;;;24.08;51.85;96622.41;4965759;28;20038;-60
2021/06/16 10:10:00;;;;;;;12.32;7.82;;;;;;;23.92;51.33;96632.72;4965980;28;20592;-66
2021/06/16 10:12:43;;;;;;;5.90;4.60;;;;;;;22.32;51.89;96517.16;4965892;28;20038;-59
2021/06/16 10:15:12;;;;;;;4.38;4.00;;;;;;;22.47;55.36;96641.63;4963845;28;20425;-61
2021/06/16 10:17:38;;;;;;;5.35;4.82;;;;;;;22.92;53.03;96627.84;4966295;28;20066;-62
2021/06/16 10:20:06;;;;;;;6.10;5.45;;;;;;;23.28;52.31;96633.78;4965832;28;20446;-66
2021/06/16 10:22:32;;;;;;;3.85;3.50;;;;;;;23.26;53.46;96627.78;4966193;28;20101;-65
2021/06/16 10:24:58;;;;;;;9.98;6.68;;;;;;;23.08;53.24;96657.97;4966050;28;20140;-67
2021/06/16 10:27:29;;;;;;;3.90;3.50;;;;;;;21.69;56.17;96603.22;4964617;28;20454;-65
2021/06/16 10:30:01;;;;;;;4.68;3.83;;;;;;;22.28;56.43;96665.31;4963686;28;20129;-64
2021/06/16 10:32:37;;;;;;;8.43;5.20;;;;;;;22.35;55.74;96663.00;4965343;28;20042;-64
2021/06/16 10:35:05;;;;;;;9.13;7.85;;;;;;;21.94;56.84;96674.53;4959814;28;20045;-58
2021/06/16 10:37:37;;;;;;;7.05;6.35;;;;;;;22.21;57.62;96662.72;4963346;28;20054;-63
2021/06/16 10:40:18;;;;;;;5.32;4.78;;;;;;;22.59;55.72;96659.81;4995759;28;20037;-61
2021/06/16 10:42:59;;;;;;;3.65;3.35;;;;;;;22.45;56.01;96683.63;4964225;28;20043;-59
2021/06/16 10:45:29;;;;;;;4.60;3.83;;;;;;;22.62;57.69;96667.34;4963403;28;20165;-60
2021/06/16 10:47:59;;;;;;;4.75;4.35;;;;;;;23.16;55.40;96645.09;4963966;28;20035;-65
2021/06/16 10:50:47;;;;;;;5.22;2.92;;;;;;;23.52;52.66;96642.50;4964195;28;20030;-60
2021/06/16 10:53:14;;;;;;;4.97;4.47;;;;;;;23.44;54.03;96661.00;4976078;28;20501;-63
2021/06/16 10:55:52;;;;;;;4.55;4.15;;;;;;;23.47;53.69;96651.59;4963741;28;20051;-62
2021/06/16 10:58:18;;;;;;;3.85;3.45;;;;;;;23.36;53.09;96577.72;4964865;28;20109;-63
2021/06/16 11:01:07;;;;;;;4.18;3.53;;;;;;;24.44;50.76;96645.88;4958425;28;20082;-63
2021/06/16 11:03:58;;;;;;;4.05;3.58;;;;;;;24.46;49.96;96651.88;4958369;28;20532;-63
2021/06/16 11:06:35;;;;;;;3.13;2.70;;;;;;;24.39;50.18;96655.00;4965734;28;20065;-63
2021/06/16 11:09:02;;;;;;;2.95;2.75;;;;;;;24.22;47.40;96661.41;4963583;28;20027;-64
2021/06/16 11:12:04;;;;;;;3.58;3.28;;;;;;;23.22;50.32;96592.41;4963862;28;20050;-63
2021/06/16 11:14:32;;;;;;;3.80;3.50;;;;;;;23.16;51.88;96659.25;4966117;28;20540;-62
2021/06/16 11:17:02;;;;;;;4.90;4.30;;;;;;;22.79;53.20;96590.47;4963814;28;20402;-69
2021/06/16 11:19:37;;;;;;;4.93;3.58;;;;;;;23.52;52.85;96665.13;4964339;28;20462;-63
2021/06/16 11:22:11;;;;;;;4.22;2.83;;;;;;;23.82;49.66;96662.25;4958464;28;20035;-63
2021/06/16 11:25:15;;;;;;;2.80;2.60;;;;;;;23.45;51.94;96659.75;4962142;28;20480;-64
2021/06/16 11:28:18;;;;;;;3.22;2.92;;;;;;;24.14;49.94;96646.78;4955027;28;20071;-62
2021/06/16 11:30:55;;;;;;;2.90;2.40;;;;;;;24.57;45.48;96587.03;4963154;28;20532;-64
2021/06/16 11:33:23;;;;;;;3.00;2.80;;;;;;;25.71;45.40;96640.00;4962462;28;20035;-62
2021/06/16 11:35:49;;;;;;;4.15;2.80;;;;;;;25.80;44.52;96648.50;4960830;28;20498;-64
2021/06/16 11:38:20;;;;;;;3.10;2.90;;;;;;;25.80;44.23;96648.50;4963895;28;20046;-65
2021/06/16 11:41:21;;;;;;;3.65;3.20;;;;;;;26.13;44.11;96649.28;4963843;28;20504;-63